createdAt,value
2019-05-10T00:00:18.593Z,14.65
2019-05-10T00:03:07.188Z,15.28
2019-05-10T00:05:55.889Z,14.43
2019-05-10T00:08:44.508Z,14.07
2019-05-10T00:11:28.659Z,14.20
2019-05-10T00:14:13.104Z,14.55
2019-05-10T00:16:44.975Z,14.45
2019-05-10T00:19:15.621Z,15.55
2019-05-10T00:21:45.922Z,15.40
2019-05-10T00:24:16.163Z,16.00
2019-05-10T00:26:46.482Z,15.35
2019-05-10T00:29:17.085Z,14.78
2019-05-10T00:31:47.418Z,14.70
2019-05-10T00:34:18.009Z,15.60
2019-05-10T00:36:48.318Z,15.63
2019-05-10T00:39:19.561Z,16.00
2019-05-10T00:41:51.283Z,15.23
2019-05-10T00:44:23.550Z,15.55
2019-05-10T00:46:53.932Z,15.50
2019-05-10T00:49:24.603Z,16.55
2019-05-10T00:51:55.254Z,15.58
2019-05-10T00:54:27.059Z,15.60
2019-05-10T00:56:57.713Z,15.72
2019-05-10T00:59:28.090Z,16.95
2019-05-10T01:01:58.648Z,16.65
2019-05-10T01:04:29.308Z,16.73
2019-05-10T01:07:00.557Z,16.00
2019-05-10T01:09:30.789Z,16.32
2019-05-10T01:12:01.023Z,15.70
2019-05-10T01:14:31.647Z,17.48
2019-05-10T01:17:02.454Z,16.95
2019-05-10T01:19:33.080Z,16.55
2019-05-10T01:22:03.395Z,18.52
2019-05-10T01:24:33.611Z,18.07
2019-05-10T01:27:04.177Z,17.00
2019-05-10T01:29:35.656Z,17.12
2019-05-10T01:32:05.861Z,17.40
2019-05-10T01:34:36.154Z,18.27
2019-05-10T01:37:06.371Z,18.42
2019-05-10T01:39:36.612Z,18.12
2019-05-10T01:42:06.832Z,17.70
2019-05-10T01:44:37.048Z,18.37
2019-05-10T01:47:07.357Z,18.75
2019-05-10T01:49:37.591Z,17.42
2019-05-10T01:52:07.834Z,19.25
2019-05-10T01:54:38.069Z,19.57
2019-05-10T01:57:08.305Z,19.37
2019-05-10T01:59:38.890Z,18.42
2019-05-10T02:02:09.179Z,19.32
2019-05-10T02:04:39.461Z,19.75
2019-05-10T02:07:09.727Z,20.82
2019-05-10T02:09:39.936Z,20.10
2019-05-10T02:12:10.584Z,20.55
2019-05-10T02:14:40.948Z,20.00
2019-05-10T02:17:11.161Z,20.12
2019-05-10T02:19:41.396Z,20.92
2019-05-10T02:22:11.657Z,20.75
2019-05-10T02:24:41.876Z,20.32
2019-05-10T02:27:12.156Z,22.00
2019-05-10T02:29:42.326Z,21.35
2019-05-10T02:32:12.931Z,21.33
2019-05-10T02:34:43.578Z,21.20
2019-05-10T02:37:14.355Z,21.57
2019-05-10T02:39:44.708Z,21.60
2019-05-10T02:42:15.335Z,21.85
2019-05-10T02:44:45.962Z,20.80
2019-05-10T02:47:16.285Z,21.37
2019-05-10T02:49:46.518Z,22.30
2019-05-10T02:52:17.154Z,21.27
2019-05-10T02:54:48.138Z,22.15
2019-05-10T02:57:19.729Z,20.97
2019-05-10T02:59:51.396Z,21.10
2019-05-10T03:02:22.438Z,20.60
2019-05-10T03:04:54.695Z,21.33
2019-05-10T03:07:26.738Z,21.93
2019-05-10T03:10:00.059Z,22.17
2019-05-10T03:12:30.312Z,22.17
2019-05-10T03:15:02.971Z,22.35
2019-05-10T03:17:33.601Z,21.80
2019-05-10T03:20:05.933Z,21.45
2019-05-10T03:22:44.060Z,20.00
2019-05-10T03:25:14.913Z,21.48
2019-05-10T03:27:45.639Z,21.17
2019-05-10T03:30:17.030Z,21.07
2019-05-10T03:32:47.396Z,21.10
2019-05-10T03:35:17.786Z,20.68
2019-05-10T03:37:48.734Z,21.73
2019-05-10T03:40:19.369Z,21.90
2019-05-10T03:42:50.717Z,19.92
2019-05-10T03:45:22.114Z,21.27
2019-05-10T03:47:52.621Z,22.62
2019-05-10T03:50:22.843Z,21.55
2019-05-10T03:52:53.113Z,21.15
2019-05-10T03:55:23.300Z,21.37
2019-05-10T03:57:53.509Z,21.52
2019-05-10T04:00:24.107Z,21.45
2019-05-10T04:02:54.315Z,21.48
2019-05-10T04:05:24.549Z,20.82
2019-05-10T04:07:54.779Z,21.52
2019-05-10T04:10:25.010Z,20.80
2019-05-10T04:12:55.264Z,21.25
2019-05-10T04:15:25.466Z,22.73
2019-05-10T04:17:55.703Z,24.00
2019-05-10T04:20:26.320Z,23.57
2019-05-10T04:22:56.669Z,24.95
2019-05-10T04:25:27.074Z,24.18
2019-05-10T04:27:57.329Z,24.35
2019-05-10T04:30:31.641Z,23.38
2019-05-10T04:32:59.634Z,25.10
2019-05-10T04:35:29.937Z,24.32
2019-05-10T04:38:00.496Z,22.37
2019-05-10T04:40:31.170Z,22.27
2019-05-10T04:43:01.461Z,21.42
2019-05-10T04:45:32.105Z,20.97
2019-05-10T04:48:02.426Z,21.68
2019-05-10T04:50:32.656Z,20.57
2019-05-10T04:53:03.261Z,20.72
2019-05-10T04:55:35.702Z,20.50
2019-05-10T04:58:06.462Z,21.77
2019-05-10T05:00:37.142Z,20.75
2019-05-10T05:03:07.827Z,20.88
2019-05-10T05:05:38.192Z,21.48
2019-05-10T05:08:08.660Z,20.55
2019-05-10T05:10:39.221Z,19.40
2019-05-10T05:13:09.909Z,19.85
2019-05-10T05:15:40.550Z,19.57
2019-05-10T05:18:10.858Z,19.95
2019-05-10T05:20:41.429Z,20.02
2019-05-10T05:23:13.023Z,19.90
2019-05-10T05:25:43.675Z,19.82
2019-05-10T05:28:18.302Z,19.82
2019-05-10T05:30:47.950Z,19.95
2019-05-10T05:33:18.208Z,20.70
2019-05-10T05:35:48.796Z,20.40
2019-05-10T05:38:19.099Z,20.05
2019-05-10T05:40:49.717Z,20.77
2019-05-10T05:43:20.359Z,20.35
2019-05-10T05:45:51.057Z,19.65
2019-05-10T05:48:23.098Z,20.85
2019-05-10T05:50:55.602Z,20.95
2019-05-10T05:53:26.172Z,19.73
2019-05-10T05:55:56.833Z,19.75
2019-05-10T05:58:27.569Z,19.37
2019-05-10T06:00:58.295Z,19.70
2019-05-10T06:03:29.729Z,18.52
2019-05-10T06:06:00.657Z,19.37
2019-05-10T06:08:31.234Z,18.55
2019-05-10T06:11:02.478Z,18.98
2019-05-10T06:13:32.825Z,18.82
2019-05-10T06:16:06.417Z,18.60
2019-05-10T06:18:35.167Z,19.50
2019-05-10T06:21:05.866Z,19.25
2019-05-10T06:23:37.389Z,18.75
2019-05-10T06:26:20.980Z,17.98
2019-05-10T06:28:58.585Z,19.07
2019-05-10T06:31:12.415Z,19.05
2019-05-10T06:33:45.160Z,18.62
2019-05-10T06:36:14.627Z,18.50
2019-05-10T06:38:45.196Z,18.25
2019-05-10T06:41:16.716Z,19.37
2019-05-10T06:43:51.381Z,19.90
2019-05-10T06:46:23.523Z,19.82
2019-05-10T06:48:52.143Z,20.25
2019-05-10T06:51:22.725Z,20.10
2019-05-10T06:53:53.974Z,21.00
2019-05-10T06:56:25.965Z,19.73
2019-05-10T06:59:12.000Z,19.23
2019-05-10T07:01:29.005Z,19.92
2019-05-10T07:04:00.632Z,19.48
2019-05-10T07:06:31.302Z,19.50
2019-05-10T07:09:01.959Z,19.48
2019-05-10T07:11:32.252Z,19.17
2019-05-10T07:14:02.490Z,20.00
2019-05-10T07:16:32.702Z,19.87
2019-05-10T07:19:02.952Z,20.55
2019-05-10T07:21:33.166Z,18.15
2019-05-10T07:24:03.424Z,18.77
2019-05-10T07:26:35.083Z,20.60
2019-05-10T07:29:05.657Z,19.67
2019-05-10T07:31:36.795Z,19.40
2019-05-10T07:34:15.450Z,19.42
2019-05-10T07:36:42.100Z,19.80
2019-05-10T07:39:12.398Z,18.40
2019-05-10T07:41:43.065Z,18.75
2019-05-10T07:44:15.777Z,19.02
2019-05-10T07:46:49.696Z,17.85
2019-05-10T07:49:18.496Z,18.42
2019-05-10T07:51:50.419Z,17.95
2019-05-10T07:54:21.042Z,19.48
2019-05-10T07:56:51.809Z,18.52
2019-05-10T07:59:27.996Z,17.70
2019-05-10T08:01:54.245Z,17.90
2019-05-10T08:04:28.940Z,19.52
2019-05-10T08:06:56.461Z,14.65
2019-05-10T08:09:31.451Z,13.50
2019-05-10T08:12:05.104Z,15.48
2019-05-10T08:14:34.570Z,13.78
2019-05-10T08:17:06.246Z,14.50
2019-05-10T08:19:38.938Z,13.45
2019-05-10T08:22:09.504Z,11.28
2019-05-10T08:24:46.441Z,11.78
2019-05-10T08:27:14.781Z,17.17
2019-05-10T08:29:44.113Z,14.53
2019-05-10T08:32:19.261Z,15.05
2019-05-10T08:37:30.430Z,14.40
2019-05-10T08:39:56.022Z,15.00
2019-05-10T08:42:40.089Z,12.03
2019-05-10T08:45:03.959Z,9.90
2019-05-10T08:47:32.154Z,10.00
2019-05-10T08:50:18.438Z,15.78
2019-05-10T08:52:34.198Z,11.33
2019-05-10T08:55:07.543Z,11.53
2019-05-10T08:57:44.216Z,10.57
2019-05-10T09:00:12.988Z,10.25
2019-05-10T09:02:42.956Z,9.78
2019-05-10T09:05:13.682Z,11.18
2019-05-10T09:07:45.417Z,11.00
2019-05-10T09:10:18.223Z,10.38
2019-05-10T09:12:54.325Z,10.25
2019-05-10T09:15:22.256Z,10.80
2019-05-10T09:17:52.939Z,10.98
2019-05-10T09:20:26.335Z,12.13
2019-05-10T09:22:56.563Z,12.20
2019-05-10T09:25:30.894Z,12.85
2019-05-10T09:28:04.520Z,13.85
2019-05-10T09:30:53.181Z,15.15
2019-05-10T09:33:11.413Z,16.42
2019-05-10T09:35:47.024Z,15.55
2019-05-10T09:38:14.877Z,15.83
2019-05-10T09:40:51.181Z,16.07
2019-05-10T09:43:20.985Z,20.02
2019-05-10T09:45:49.867Z,22.62
2019-05-10T09:48:22.837Z,18.12
2019-05-10T09:50:56.264Z,16.65
2019-05-10T09:53:27.555Z,16.37
2019-05-10T09:56:02.600Z,16.80
2019-05-10T09:58:29.651Z,20.23
2019-05-10T10:01:13.868Z,15.23
2019-05-10T10:03:39.828Z,15.32
2019-05-10T10:06:07.811Z,14.80
2019-05-10T10:08:38.422Z,12.37
2019-05-10T10:11:15.111Z,11.05
2019-05-10T10:13:43.936Z,11.95
2019-05-10T10:16:14.939Z,16.85
2019-05-10T10:18:47.531Z,12.45
2019-05-10T10:21:26.980Z,10.03
2019-05-10T10:23:51.867Z,9.13
2019-05-10T10:26:22.672Z,10.93
2019-05-10T10:28:55.285Z,10.45
2019-05-10T10:31:30.449Z,10.00
2019-05-10T10:34:00.338Z,10.58
2019-05-10T10:36:29.983Z,11.33
2019-05-10T10:39:00.279Z,10.08
2019-05-10T10:41:31.888Z,10.00
2019-05-10T10:44:02.474Z,11.28
2019-05-10T10:46:34.851Z,10.70
2019-05-10T10:49:06.024Z,10.55
2019-05-10T10:51:37.973Z,10.48
2019-05-10T10:54:08.338Z,9.85
2019-05-10T10:56:39.481Z,9.78
2019-05-10T10:59:10.135Z,8.50
2019-05-10T11:01:49.863Z,7.72
2019-05-10T11:04:16.156Z,8.10
2019-05-10T11:06:45.080Z,9.85
2019-05-10T11:09:15.769Z,9.03
2019-05-10T11:11:46.029Z,8.18
2019-05-10T11:14:16.643Z,10.00
2019-05-10T11:16:52.953Z,8.95
2019-05-10T11:19:20.449Z,10.58
2019-05-10T11:21:51.811Z,9.68
2019-05-10T11:24:23.072Z,10.30
2019-05-10T11:26:53.899Z,10.70
2019-05-10T11:29:27.708Z,12.00
2019-05-10T11:32:12.170Z,9.75
2019-05-10T11:34:37.190Z,8.80
2019-05-10T11:37:01.628Z,8.73
2019-05-10T11:39:40.264Z,10.60
2019-05-10T11:42:07.395Z,8.33
2019-05-10T11:44:41.586Z,9.30
2019-05-10T11:47:22.938Z,10.78
2019-05-10T11:49:42.187Z,10.08
2019-05-10T11:52:13.228Z,9.50
2019-05-10T11:54:43.762Z,9.80
2019-05-10T11:57:14.044Z,9.23
2019-05-10T11:59:44.306Z,13.43
2019-05-10T12:02:32.700Z,11.20
2019-05-10T12:04:46.877Z,11.10
2019-05-10T12:07:26.017Z,9.88
2019-05-10T12:09:53.295Z,9.75
2019-05-10T12:12:29.531Z,11.05
2019-05-10T12:14:56.466Z,14.63
2019-05-10T12:17:26.751Z,9.90
2019-05-10T12:19:57.023Z,12.37
2019-05-10T12:22:32.213Z,10.55
2019-05-10T12:25:20.527Z,10.85
2019-05-10T12:27:44.379Z,9.03
2019-05-10T12:30:06.357Z,8.98
2019-05-10T12:32:46.864Z,10.23
2019-05-10T12:35:11.633Z,10.35
2019-05-10T12:37:46.364Z,10.35
2019-05-10T12:40:15.508Z,9.58
2019-05-10T12:42:47.084Z,10.25
2019-05-10T12:45:22.894Z,9.70
2019-05-10T12:47:52.111Z,9.45
2019-05-10T12:50:24.041Z,12.00
2019-05-10T12:53:03.152Z,9.75
2019-05-10T12:55:28.083Z,11.28
2019-05-10T12:58:00.811Z,12.68
2019-05-10T13:00:32.879Z,12.53
2019-05-10T13:03:12.160Z,10.45
2019-05-10T13:05:51.477Z,10.70
2019-05-10T13:08:08.456Z,10.90
2019-05-10T13:10:43.353Z,9.88
2019-05-10T13:13:11.689Z,10.50
2019-05-10T13:15:42.364Z,18.65
2019-05-10T13:18:12.649Z,19.30
2019-05-10T13:20:45.612Z,14.35
2019-05-10T13:23:18.502Z,10.58
2019-05-10T13:25:48.592Z,10.08
2019-05-10T13:28:19.230Z,10.85
2019-05-10T13:30:49.888Z,16.30
2019-05-10T13:33:28.587Z,14.33
2019-05-10T13:35:56.713Z,10.43
2019-05-10T13:38:24.920Z,11.20
2019-05-10T13:40:55.604Z,12.60
2019-05-10T13:43:28.224Z,13.35
2019-05-10T13:45:58.676Z,13.15
2019-05-10T13:48:29.298Z,12.73
2019-05-10T13:50:59.975Z,11.63
2019-05-10T13:53:30.695Z,11.90
2019-05-10T13:56:01.273Z,11.03
2019-05-10T13:58:31.522Z,11.40
2019-05-10T14:01:06.697Z,12.43
2019-05-10T14:03:44.075Z,12.28
2019-05-10T14:06:06.011Z,12.40
2019-05-10T14:08:42.930Z,12.50
2019-05-10T14:11:12.742Z,12.28
2019-05-10T14:13:43.413Z,13.00
2019-05-10T14:16:19.652Z,13.40
2019-05-10T14:18:46.175Z,12.70
2019-05-10T14:21:16.391Z,14.53
2019-05-10T14:23:46.995Z,16.00
2019-05-10T14:26:18.341Z,12.45
2019-05-10T14:28:53.167Z,14.63
2019-05-10T14:31:21.008Z,25.32
2019-05-10T14:34:14.040Z,13.50
2019-05-10T14:36:24.118Z,13.83
2019-05-10T14:38:56.385Z,13.85
2019-05-10T14:41:26.975Z,13.88
2019-05-10T14:43:58.876Z,12.10
2019-05-10T14:46:30.655Z,11.85
2019-05-10T14:49:08.877Z,12.80
2019-05-10T14:51:49.315Z,13.43
2019-05-10T14:54:08.870Z,13.13
2019-05-10T14:56:49.387Z,13.48
2019-05-10T14:59:20.030Z,11.33
2019-05-10T15:01:50.503Z,10.85
2019-05-10T15:04:43.828Z,11.97
2019-05-10T15:06:53.507Z,11.65
2019-05-10T15:09:25.233Z,11.65
2019-05-10T15:11:55.927Z,11.60
2019-05-10T15:14:26.700Z,11.25
2019-05-10T15:16:57.389Z,11.95
2019-05-10T15:19:31.535Z,11.97
2019-05-10T15:22:01.493Z,11.75
2019-05-10T15:24:31.810Z,11.28
2019-05-10T15:27:02.060Z,11.70
2019-05-10T15:29:34.869Z,13.03
2019-05-10T15:32:07.244Z,13.22
2019-05-10T15:34:37.877Z,13.00
2019-05-10T15:37:09.447Z,12.68
2019-05-10T15:39:40.872Z,13.38
2019-05-10T15:42:11.560Z,14.18
2019-05-10T15:44:45.526Z,13.70
2019-05-10T15:47:20.368Z,16.07
2019-05-10T15:49:49.332Z,12.67
2019-05-10T15:52:23.334Z,18.52
2019-05-10T15:54:52.144Z,14.23
2019-05-10T15:57:23.519Z,13.40
2019-05-10T15:59:56.461Z,13.08
2019-05-10T16:02:25.926Z,14.20
2019-05-10T16:04:56.230Z,14.18
2019-05-10T16:07:30.477Z,15.70
2019-05-10T16:10:00.725Z,17.52
2019-05-10T16:12:31.324Z,15.85
2019-05-10T16:15:01.689Z,14.73
2019-05-10T16:17:33.400Z,17.87
2019-05-10T16:20:04.993Z,15.15
2019-05-10T16:22:35.523Z,14.80
2019-05-10T16:25:09.590Z,15.53
2019-05-10T16:27:44.836Z,14.13
2019-05-10T16:30:17.718Z,16.87
2019-05-10T16:32:45.813Z,16.07
2019-05-10T16:35:16.150Z,16.25
2019-05-10T16:37:46.475Z,19.98
2019-05-10T16:40:16.879Z,18.42
2019-05-10T16:42:47.187Z,17.57
2019-05-10T16:45:17.491Z,16.15
2019-05-10T16:47:47.704Z,15.98
2019-05-10T16:50:18.405Z,15.58
2019-05-10T16:52:49.116Z,17.73
2019-05-10T16:55:19.400Z,16.45
2019-05-10T16:57:51.195Z,17.57
2019-05-10T17:00:23.596Z,15.13
2019-05-10T17:02:54.308Z,16.17
2019-05-10T17:05:24.604Z,18.65
2019-05-10T17:07:58.822Z,17.37
2019-05-10T17:10:32.501Z,16.17
2019-05-10T17:12:59.531Z,21.33
2019-05-10T17:15:33.762Z,20.88
2019-05-10T17:18:03.991Z,15.48
2019-05-10T17:20:34.308Z,15.10
2019-05-10T17:23:09.063Z,17.37
2019-05-10T17:25:40.671Z,35.50
2019-05-10T17:28:10.936Z,81.55
2019-05-10T17:30:44.773Z,20.00
2019-05-10T17:33:14.026Z,115.25
2019-05-10T17:35:44.354Z,25.85
2019-05-10T17:38:16.274Z,34.90
2019-05-10T17:40:49.813Z,24.07
2019-05-10T17:43:22.605Z,20.77
2019-05-10T17:45:51.635Z,20.48
2019-05-10T17:48:24.153Z,17.98
2019-05-10T17:50:54.393Z,17.80
2019-05-10T17:53:24.615Z,18.87
2019-05-10T17:55:57.322Z,18.42
2019-05-10T17:58:33.593Z,23.38
2019-05-10T18:01:01.150Z,24.23
2019-05-10T18:03:31.859Z,21.55
2019-05-10T18:06:02.511Z,23.10
2019-05-10T18:08:35.653Z,21.73
2019-05-10T18:11:06.227Z,22.25
2019-05-10T18:13:40.840Z,21.50
2019-05-10T18:16:09.510Z,22.50
2019-05-10T18:18:46.186Z,24.40
2019-05-10T18:21:22.062Z,24.95
2019-05-10T18:23:47.259Z,20.80
2019-05-10T18:26:17.897Z,21.17
2019-05-10T18:28:48.941Z,24.70
2019-05-10T18:31:19.564Z,22.67
2019-05-10T18:33:54.593Z,23.98
2019-05-10T18:36:26.755Z,28.10
2019-05-10T18:38:55.188Z,26.52
2019-05-10T18:41:28.583Z,23.73
2019-05-10T18:43:58.869Z,26.80
2019-05-10T18:46:30.701Z,28.00
2019-05-10T18:49:01.366Z,26.00
2019-05-10T18:51:34.948Z,31.55
2019-05-10T18:54:08.306Z,25.72
2019-05-10T18:56:38.949Z,27.37
2019-05-10T18:59:09.528Z,36.28
2019-05-10T19:01:40.684Z,35.10
2019-05-10T19:04:14.582Z,34.55
2019-05-10T19:06:50.038Z,40.75
2019-05-10T19:09:17.354Z,50.70
2019-05-10T19:11:47.856Z,45.90
2019-05-10T19:14:18.438Z,44.13
2019-05-10T19:16:48.763Z,44.98
2019-05-10T19:19:19.158Z,45.08
2019-05-10T19:21:49.545Z,37.10
2019-05-10T19:24:24.263Z,46.90
2019-05-10T19:26:52.207Z,45.50
2019-05-10T19:29:22.754Z,52.48
2019-05-10T19:31:58.893Z,44.67
2019-05-10T19:34:29.521Z,44.18
2019-05-10T19:37:01.374Z,42.25
2019-05-10T19:39:31.709Z,45.28
2019-05-10T19:42:04.048Z,52.88
2019-05-10T19:44:34.821Z,58.38
2019-05-10T19:47:11.219Z,57.75
2019-05-10T19:49:38.434Z,71.85
2019-05-10T19:52:09.092Z,59.35
2019-05-10T19:54:39.450Z,53.65
2019-05-10T19:57:16.466Z,51.73
2019-05-10T19:59:44.128Z,46.80
2019-05-10T20:02:14.456Z,47.90
2019-05-10T20:04:45.245Z,67.27
2019-05-10T20:07:19.339Z,72.82
2019-05-10T20:09:51.179Z,71.42
2019-05-10T20:12:21.840Z,66.80
2019-05-10T20:14:52.283Z,63.92
2019-05-10T20:17:23.006Z,55.75
2019-05-10T20:19:54.857Z,56.05
2019-05-10T20:22:26.739Z,53.85
2019-05-10T20:24:57.063Z,55.63
2019-05-10T20:27:27.279Z,58.65
2019-05-10T20:29:59.378Z,59.53
2019-05-10T20:32:29.684Z,61.95
2019-05-10T20:35:00.343Z,54.45
2019-05-10T20:37:31.004Z,56.92
2019-05-10T20:40:02.094Z,56.20
2019-05-10T20:42:32.454Z,58.20
2019-05-10T20:45:08.571Z,56.53
2019-05-10T20:47:35.589Z,56.85
2019-05-10T20:50:07.564Z,58.63
2019-05-10T20:52:37.849Z,57.65
2019-05-10T20:55:08.941Z,58.50
2019-05-10T20:57:39.157Z,60.95
2019-05-10T21:00:09.881Z,58.45
2019-05-10T21:02:40.910Z,60.88
2019-05-10T21:05:11.454Z,58.95
2019-05-10T21:07:41.751Z,58.92
2019-05-10T21:10:13.131Z,59.65
2019-05-10T21:12:43.606Z,58.08
2019-05-10T21:15:13.957Z,60.08
2019-05-10T21:17:44.231Z,57.38
2019-05-10T21:20:15.067Z,58.17
2019-05-10T21:22:45.285Z,58.33
2019-05-10T21:25:16.051Z,58.25
2019-05-10T21:27:47.346Z,59.38
2019-05-10T21:30:18.647Z,57.33
2019-05-10T21:32:49.360Z,55.70
2019-05-10T21:35:20.030Z,55.55
2019-05-10T21:37:50.775Z,55.45
2019-05-10T21:40:21.136Z,54.23
2019-05-10T21:42:51.354Z,55.78
2019-05-10T21:45:22.024Z,56.80
2019-05-10T21:47:53.645Z,61.73
2019-05-10T21:50:24.233Z,61.18
2019-05-10T21:52:54.977Z,60.15
2019-05-10T21:55:25.674Z,59.85
2019-05-10T21:57:56.313Z,59.63
2019-05-10T22:00:29.365Z,57.25
2019-05-10T22:03:02.024Z,56.40
2019-05-10T22:05:32.462Z,56.85
2019-05-10T22:08:02.727Z,56.75
2019-05-10T22:10:33.016Z,56.35
2019-05-10T22:13:03.223Z,54.38
2019-05-10T22:15:33.442Z,55.52
2019-05-10T22:18:03.755Z,53.75
2019-05-10T22:20:33.962Z,55.78
2019-05-10T22:23:04.807Z,51.53
2019-05-10T22:25:35.403Z,52.13
2019-05-10T22:28:06.052Z,53.00
2019-05-10T22:30:36.798Z,51.13
2019-05-10T22:33:09.609Z,50.17
2019-05-10T22:35:39.066Z,52.10
2019-05-10T22:38:09.325Z,51.77
2019-05-10T22:40:39.573Z,50.08
2019-05-10T22:43:10.206Z,49.40
2019-05-10T22:45:40.885Z,53.00
2019-05-10T22:48:11.549Z,49.80
2019-05-10T22:50:42.210Z,50.03
2019-05-10T22:53:12.508Z,49.45
2019-05-10T22:55:42.720Z,49.70
2019-05-10T22:58:13.071Z,51.77
2019-05-10T23:00:43.716Z,51.92
2019-05-10T23:03:13.956Z,49.15
2019-05-10T23:05:44.246Z,50.98
2019-05-10T23:08:14.525Z,50.83
2019-05-10T23:10:44.814Z,51.00
2019-05-10T23:13:15.102Z,50.67
2019-05-10T23:15:45.730Z,52.45
2019-05-10T23:18:16.379Z,50.80
2019-05-10T23:20:47.092Z,53.05
2019-05-10T23:23:20.951Z,52.83
2019-05-10T23:25:49.803Z,53.30
2019-05-10T23:28:20.048Z,52.35
2019-05-10T23:30:50.340Z,52.70
2019-05-10T23:33:20.889Z,52.62
2019-05-10T23:35:51.231Z,51.63
2019-05-10T23:38:24.583Z,52.15
2019-05-10T23:40:55.154Z,51.33
2019-05-10T23:43:25.795Z,51.73
2019-05-10T23:45:56.107Z,52.93
2019-05-10T23:48:26.327Z,52.35
2019-05-10T23:50:56.979Z,52.40
2019-05-10T23:53:27.297Z,51.05
2019-05-10T23:55:57.915Z,52.80
2019-05-10T23:58:28.738Z,50.63
